Time;durP1;ratioP1;P1;durP2;ratioP2;P2;SDS_P1;SDS_P2;PMS_P1;PMS_P2;Temp;Humidity;BMP_temperature;BMP_pressure;BME280_temperature;BME280_humidity;BME280_pressure;Samples;Min_cycle;Max_cycle;Signal;HPM_P1;HPM_P2
2022/01/19 00:00:37;;;;;;;63.05;30.20;;;;;;;0.13;100.00;103114.59;5075098;28;20031;-70
2022/01/19 00:03:02;;;;;;;68.50;29.55;;;;;;;0.08;100.00;103103.81;5074913;28;20028;-70
2022/01/19 00:05:28;;;;;;;93.03;30.55;;;;;;;0.03;100.00;103093.81;5074500;28;20036;-70
2022/01/19 00:07:53;;;;;;;51.10;28.35;;;;;;;-0.07;100.00;103087.88;5074511;28;20017;-71
2022/01/19 00:10:26;;;;;;;51.53;27.88;;;;;;;-0.04;100.00;103082.00;5075032;28;20079;-71
2022/01/19 00:12:52;;;;;;;61.13;31.50;;;;;;;-0.08;100.00;103077.34;5074483;28;20119;-70
2022/01/19 00:15:18;;;;;;;98.57;32.85;;;;;;;-0.07;100.00;103082.66;5074573;28;20103;-68
2022/01/19 00:17:43;;;;;;;109.45;32.80;;;;;;;-0.11;100.00;103100.50;5074712;28;20028;-68
2022/01/19 00:20:09;;;;;;;125.30;32.83;;;;;;;-0.16;100.00;103099.19;5073942;28;20039;-69
2022/01/19 00:22:34;;;;;;;92.80;30.65;;;;;;;-0.08;100.00;103101.63;5074520;28;20384;-69
2022/01/19 00:25:00;;;;;;;127.22;33.75;;;;;;;-0.28;100.00;103086.97;5074616;28;20036;-69
2022/01/19 00:27:25;;;;;;;116.65;34.70;;;;;;;-0.22;100.00;103078.75;5074136;28;20027;-67
2022/01/19 00:29:51;;;;;;;143.50;36.95;;;;;;;-0.20;100.00;103059.03;5074297;28;20028;-65
2022/01/19 00:32:16;;;;;;;99.45;37.28;;;;;;;-0.14;100.00;103049.13;5074317;28;20099;-69
2022/01/19 00:34:41;;;;;;;111.57;37.63;;;;;;;-0.10;100.00;103026.88;5070050;28;20074;-66
2022/01/19 00:37:07;;;;;;;127.22;36.88;;;;;;;-0.18;100.00;103013.25;5074044;28;20078;-67
2022/01/19 00:39:33;;;;;;;96.97;33.03;;;;;;;-0.24;100.00;103004.94;5074289;28;20101;-69
2022/01/19 00:41:59;;;;;;;126.93;35.97;;;;;;;-0.34;100.00;102989.38;5074021;28;20100;-67
2022/01/19 00:44:25;;;;;;;109.55;36.17;;;;;;;-0.30;100.00;102983.66;5074039;28;20119;-69
2022/01/19 00:46:50;;;;;;;101.47;35.08;;;;;;;-0.39;100.00;102989.91;5073812;28;20096;-66
2022/01/19 00:49:16;;;;;;;82.40;32.50;;;;;;;-0.30;100.00;102999.25;5073923;28;20031;-68
2022/01/19 00:51:41;;;;;;;102.18;33.33;;;;;;;-0.31;100.00;103016.50;5073800;28;20056;-68
2022/01/19 00:54:06;;;;;;;125.60;33.40;;;;;;;-0.32;100.00;103014.72;5073736;28;20040;-69
2022/01/19 00:56:34;;;;;;;92.15;32.70;;;;;;;-0.23;100.00;103018.06;5073670;28;20058;-69
2022/01/19 00:59:00;;;;;;;112.35;35.88;;;;;;;-0.31;100.00;103015.63;5073811;28;20037;-69
2022/01/19 01:01:25;;;;;;;112.20;37.33;;;;;;;-0.30;100.00;103025.25;5073624;28;20074;-68
2022/01/19 01:03:51;;;;;;;90.75;34.55;;;;;;;-0.30;100.00;103030.44;5073357;28;20024;-67
2022/01/19 01:06:16;;;;;;;90.45;34.75;;;;;;;-0.31;100.00;103024.31;5073734;28;20099;-69
2022/01/19 01:08:43;;;;;;;92.78;32.95;;;;;;;-0.44;100.00;103011.97;5073435;28;20375;-65
2022/01/19 01:11:08;;;;;;;86.22;32.78;;;;;;;-0.53;100.00;103001.72;5073397;28;20020;-69
2022/01/19 01:16:31;;;;;;;78.07;31.63;;;;;;;-0.71;100.00;102990.69;5070252;28;20086;-71
2022/01/19 01:18:56;;;;;;;61.45;29.73;;;;;;;-0.76;100.00;102975.50;5073461;28;20107;-70
2022/01/19 01:21:22;;;;;;;82.15;32.38;;;;;;;-0.75;100.00;102966.94;5073108;28;20108;-71
2022/01/19 01:23:48;;;;;;;89.95;32.45;;;;;;;-0.86;100.00;102957.31;5073283;28;20032;-71
2022/01/19 01:26:13;;;;;;;66.25;32.55;;;;;;;-0.86;100.00;102949.53;5073143;28;20044;-70
2022/01/19 01:28:39;;;;;;;52.53;31.08;;;;;;;-0.86;100.00;102936.56;5073167;28;20033;-71
2022/01/19 01:31:07;;;;;;;56.05;30.80;;;;;;;-0.92;100.00;102936.94;5073020;28;20020;-71
2022/01/19 01:33:33;;;;;;;57.47;30.42;;;;;;;-0.94;100.00;102930.72;5072858;28;20098;-70
2022/01/19 01:35:58;;;;;;;63.67;31.05;;;;;;;-1.08;100.00;102920.09;5072850;28;20055;-71
2022/01/19 01:38:23;;;;;;;54.38;30.42;;;;;;;-1.02;100.00;102901.53;5073206;28;20535;-71
2022/01/19 01:40:49;;;;;;;56.47;30.45;;;;;;;-0.96;100.00;102889.03;5071751;28;20027;-70
2022/01/19 01:43:14;;;;;;;53.83;29.70;;;;;;;-0.93;100.00;102880.63;5073169;28;20021;-70
2022/01/19 01:45:43;;;;;;;63.97;29.65;;;;;;;-0.82;100.00;102877.19;5072982;28;20398;-70
2022/01/19 01:48:13;;;;;;;80.10;31.83;;;;;;;-0.76;100.00;102880.31;5072876;28;20026;-70
2022/01/19 01:53:28;;;;;;;71.00;31.48;;;;;;;-0.79;100.00;102887.84;5070454;28;20070;-70
2022/01/19 01:56:09;;;;;;;59.25;30.25;;;;;;;-0.82;100.00;102892.78;5072923;28;20017;-71
2022/01/19 01:58:41;;;;;;;58.75;29.83;;;;;;;-0.90;100.00;102904.25;5072931;28;20499;-71
2022/01/19 02:01:08;;;;;;;53.08;29.02;;;;;;;-0.97;100.00;102896.72;5072629;28;20025;-70
2022/01/19 02:03:38;;;;;;;51.63;27.85;;;;;;;-0.93;100.00;102901.38;5072723;28;20034;-66
2022/01/19 02:06:32;;;;;;;65.70;30.17;;;;;;;-0.98;100.00;102885.41;5072728;28;20031;-68
2022/01/19 02:09:19;;;;;;;65.90;32.15;;;;;;;-1.01;100.00;102877.34;5070516;28;20379;-66
2022/01/19 02:22:59;;;;;;;74.63;31.10;;;;;;;-1.25;100.00;102847.66;5070256;28;20120;-68
2022/01/19 02:25:28;;;;;;;73.07;31.33;;;;;;;-1.40;100.00;102849.84;5072277;28;20031;-68
2022/01/19 02:41:27;;;;;;;107.53;34.40;;;;;;;-1.41;100.00;102789.25;5070589;28;20051;-68
2022/01/19 02:43:52;;;;;;;133.10;36.85;;;;;;;-1.42;100.00;102782.25;5074783;28;20029;-66
2022/01/19 02:46:53;;;;;;;73.75;32.90;;;;;;;-1.45;100.00;102769.03;5076429;28;20023;-66
2022/01/19 02:49:20;;;;;;;85.43;33.78;;;;;;;-1.58;100.00;102766.19;5072680;28;20032;-68
2022/01/19 02:51:51;;;;;;;74.05;33.42;;;;;;;-1.55;100.00;102762.94;5076269;28;20020;-68
2022/01/19 02:54:20;;;;;;;78.80;32.20;;;;;;;-1.73;100.00;102765.81;5072988;28;20031;-69
2022/01/19 02:56:50;;;;;;;74.20;32.67;;;;;;;-1.72;100.00;102765.00;5072495;28;20387;-68
2022/01/19 02:59:21;;;;;;;65.80;30.42;;;;;;;-1.68;100.00;102771.38;5072138;28;20025;-69
2022/01/19 03:09:40;;;;;;;56.75;31.35;;;;;;;-1.85;100.00;102747.53;5076101;28;20392;-67
2022/01/19 03:12:06;;;;;;;50.53;29.52;;;;;;;-1.93;100.00;102743.34;5075515;28;20074;-68
2022/01/19 03:14:32;;;;;;;62.50;31.30;;;;;;;-1.94;100.00;102731.16;5075734;28;20029;-68
2022/01/19 03:16:57;;;;;;;51.28;30.10;;;;;;;-1.91;100.00;102726.22;5075873;28;20055;-68
2022/01/19 03:19:22;;;;;;;61.38;32.25;;;;;;;-1.88;100.00;102721.31;5075693;28;20422;-68
2022/01/19 03:21:48;;;;;;;80.32;31.55;;;;;;;-1.90;100.00;102711.59;5076094;28;20032;-68
2022/01/19 03:24:13;;;;;;;84.53;32.92;;;;;;;-1.91;100.00;102718.44;5075703;28;20024;-68
2022/01/19 03:26:40;;;;;;;64.47;31.70;;;;;;;-1.86;100.00;102709.41;5075605;28;20032;-68
2022/01/19 03:29:05;;;;;;;49.30;32.60;;;;;;;-1.90;100.00;102706.41;5075432;28;20052;-68
2022/01/19 03:31:30;;;;;;;51.25;33.33;;;;;;;-1.95;100.00;102703.44;5075492;28;20048;-72
2022/01/19 03:33:56;;;;;;;49.35;33.45;;;;;;;-1.84;100.00;102702.63;5075573;28;20534;-71
2022/01/19 03:36:21;;;;;;;45.40;32.03;;;;;;;-1.82;100.00;102695.91;5075230;28;20009;-70
2022/01/19 03:38:46;;;;;;;45.72;31.73;;;;;;;-1.82;100.00;102695.91;5075295;28;20066;-70
2022/01/19 03:41:12;;;;;;;53.17;35.67;;;;;;;-1.81;100.00;102692.53;5075410;28;20055;-72
2022/01/19 03:43:37;;;;;;;50.15;33.97;;;;;;;-1.86;100.00;102696.44;5075048;28;20056;-70
2022/01/19 03:46:05;;;;;;;47.92;33.08;;;;;;;-1.80;100.00;102688.25;5074954;28;20028;-72
2022/01/19 03:48:50;;;;;;;48.28;34.05;;;;;;;-1.72;100.00;102674.22;5075453;28;20024;-71
2022/01/19 03:51:15;;;;;;;47.58;31.83;;;;;;;-1.71;100.00;102669.97;5071343;28;20456;-71
2022/01/19 03:53:41;;;;;;;67.45;41.38;;;;;;;-1.57;100.00;102661.66;5074878;28;20036;-71
2022/01/19 03:56:06;;;;;;;71.68;42.97;;;;;;;-1.50;100.00;102656.19;5074133;28;20040;-71
2022/01/19 03:58:32;;;;;;;81.03;45.83;;;;;;;-1.41;100.00;102641.38;5075265;28;20417;-71
2022/01/19 04:00:58;;;;;;;85.47;46.88;;;;;;;-1.32;100.00;102645.50;5074721;28;20036;-69
2022/01/19 04:03:58;;;;;;;90.30;49.08;;;;;;;-1.22;100.00;102650.66;5074889;28;20020;-70
2022/01/19 04:06:25;;;;;;;95.05;51.50;;;;;;;-1.14;100.00;102638.28;5071417;28;20472;-69
2022/01/19 04:08:51;;;;;;;97.63;51.97;;;;;;;-1.10;100.00;102640.34;5071998;28;20441;-71
2022/01/19 04:11:19;;;;;;;99.78;52.85;;;;;;;-1.02;100.00;102639.28;5074729;28;20056;-70
2022/01/19 04:16:30;;;;;;;98.55;52.75;;;;;;;-1.06;100.00;102632.03;5030498;28;20154;-71
2022/01/19 04:19:09;;;;;;;102.55;52.05;;;;;;;-1.04;100.00;102626.97;5032670;28;20034;-71
2022/01/19 04:21:34;;;;;;;96.22;50.17;;;;;;;-1.11;100.00;102622.94;5032660;28;20041;-71
2022/01/19 04:23:59;;;;;;;100.90;53.03;;;;;;;-1.07;100.00;102620.72;5032156;28;20087;-72
2022/01/19 04:26:25;;;;;;;106.30;54.50;;;;;;;-1.01;100.00;102633.28;5032248;28;20504;-72
2022/01/19 04:28:50;;;;;;;114.28;57.40;;;;;;;-0.99;100.00;102623.03;5032436;28;20042;-71
2022/01/19 04:31:15;;;;;;;117.43;57.13;;;;;;;-0.95;100.00;102630.28;5032260;28;20384;-71
2022/01/19 04:33:44;;;;;;;111.57;55.97;;;;;;;-0.96;100.00;102639.78;5032126;28;20065;-71
2022/01/19 04:36:27;;;;;;;116.18;57.35;;;;;;;-0.90;100.00;102636.75;5032303;28;20152;-70
2022/01/19 04:54:08;;;;;;;141.40;61.67;;;;;;;-0.66;100.00;102634.28;5031966;28;20030;-68
2022/01/19 04:54:52;;;;;;;141.25;61.05;;;;;;;-0.58;100.00;102639.28;5070848;28;20102;-69
2022/01/19 05:05:28;;;;;;;157.82;62.42;;;;;;;-0.56;100.00;102622.09;5070275;28;20135;-69
2022/01/19 05:15:47;;;;;;;135.73;57.45;;;;;;;-0.62;100.00;102615.56;5069937;28;20071;-68
2022/01/19 05:18:13;;;;;;;130.38;55.15;;;;;;;-0.64;100.00;102609.31;5073473;28;20024;-67
2022/01/19 05:20:38;;;;;;;140.60;59.03;;;;;;;-0.67;100.00;102629.84;5073060;28;20463;-67
2022/01/19 05:23:04;;;;;;;142.15;59.80;;;;;;;-0.72;100.00;102619.09;5073663;28;20095;-68
2022/01/19 05:25:30;;;;;;;120.72;52.60;;;;;;;-0.72;100.00;102614.81;5073186;28;20028;-68
2022/01/19 05:27:55;;;;;;;130.18;57.53;;;;;;;-0.73;100.00;102623.41;5073361;28;20375;-68
2022/01/19 05:30:21;;;;;;;124.88;57.15;;;;;;;-0.69;100.00;102627.13;5073186;28;20025;-68
2022/01/19 05:32:46;;;;;;;133.07;60.25;;;;;;;-0.68;100.00;102630.63;5073129;28;20036;-68
2022/01/19 05:35:12;;;;;;;122.15;55.75;;;;;;;-0.66;100.00;102626.47;5072871;28;20028;-68
2022/01/19 05:37:38;;;;;;;127.03;59.00;;;;;;;-0.62;100.00;102624.25;5073301;28;20448;-68
2022/01/19 05:40:08;;;;;;;122.03;58.42;;;;;;;-0.61;100.00;102622.53;5073113;28;20098;-69
2022/01/19 05:42:34;;;;;;;118.95;57.03;;;;;;;-0.57;100.00;102616.78;5072890;28;20154;-68
2022/01/19 05:45:00;;;;;;;110.50;54.55;;;;;;;-0.56;100.00;102613.41;5073295;28;20111;-67
2022/01/19 05:47:26;;;;;;;110.05;54.47;;;;;;;-0.55;100.00;102617.84;5072873;28;20027;-68
2022/01/19 05:49:52;;;;;;;115.47;57.00;;;;;;;-0.54;100.00;102620.56;5072689;28;20024;-68
2022/01/19 05:52:17;;;;;;;109.70;54.45;;;;;;;-0.51;100.00;102609.50;5072949;28;20059;-66
2022/01/19 05:54:43;;;;;;;110.22;56.00;;;;;;;-0.49;100.00;102602.72;5072699;28;20044;-68
2022/01/19 05:57:08;;;;;;;107.00;54.25;;;;;;;-0.48;100.00;102606.22;5072714;28;20029;-68
2022/01/19 05:59:35;;;;;;;101.05;53.75;;;;;;;-0.46;100.00;102602.94;5072890;28;20025;-68
2022/01/19 06:02:00;;;;;;;95.70;50.05;;;;;;;-0.43;100.00;102608.38;5072917;28;20024;-68
2022/01/19 06:04:26;;;;;;;96.63;51.70;;;;;;;-0.42;100.00;102606.72;5072745;28;20069;-68
2022/01/19 06:06:54;;;;;;;94.43;51.30;;;;;;;-0.39;100.00;102610.44;5072663;28;20036;-66
2022/01/19 06:09:50;;;;;;;93.82;51.88;;;;;;;-0.38;100.00;102600.94;5072604;28;20031;-68
2022/01/19 06:12:16;;;;;;;89.72;49.90;;;;;;;-0.36;100.00;102605.47;5068355;28;20049;-68
2022/01/19 06:14:43;;;;;;;85.70;48.85;;;;;;;-0.33;100.00;102601.31;5072575;28;20474;-70
2022/01/19 06:17:13;;;;;;;85.15;49.15;;;;;;;-0.34;100.00;102597.78;5072268;28;20020;-70
2022/01/19 06:19:39;;;;;;;85.78;49.42;;;;;;;-0.32;100.00;102596.22;5072662;28;20383;-71
2022/01/19 06:22:05;;;;;;;87.18;49.85;;;;;;;-0.31;100.00;102592.81;5072624;28;20013;-70
2022/01/19 06:24:30;;;;;;;87.40;49.92;;;;;;;-0.28;100.00;102582.66;5072519;28;20032;-70
2022/01/19 06:26:56;;;;;;;83.53;48.05;;;;;;;-0.26;100.00;102585.38;5072580;28;20031;-70
2022/01/19 06:29:22;;;;;;;84.07;49.50;;;;;;;-0.27;100.00;102584.47;5069393;28;20027;-72
2022/01/19 06:31:48;;;;;;;76.45;46.53;;;;;;;-0.21;100.00;102573.63;5077382;28;20040;-71
2022/01/19 06:34:14;;;;;;;77.40;46.72;;;;;;;-0.22;100.00;102567.53;5074527;28;20062;-71
2022/01/19 06:36:39;;;;;;;76.85;46.47;;;;;;;-0.20;100.00;102567.66;5071959;28;20123;-71
2022/01/19 06:39:05;;;;;;;74.78;46.28;;;;;;;-0.19;100.00;102556.44;5072423;28;20028;-69
2022/01/19 06:41:30;;;;;;;73.78;44.95;;;;;;;-0.16;100.00;102553.19;5066532;28;20025;-69
2022/01/19 06:43:56;;;;;;;74.35;46.05;;;;;;;-0.14;100.00;102549.03;5072807;28;20438;-69
2022/01/19 06:46:22;;;;;;;76.60;46.83;;;;;;;-0.14;100.00;102557.72;5073548;28;20025;-70
2022/01/19 06:48:47;;;;;;;79.13;45.67;;;;;;;-0.10;100.00;102551.97;5070888;28;20078;-70
2022/01/19 06:51:12;;;;;;;72.55;44.58;;;;;;;-0.12;100.00;102540.53;5077675;28;20032;-71
2022/01/19 06:53:38;;;;;;;75.63;45.45;;;;;;;-0.09;100.00;102538.16;5067304;28;20040;-71
2022/01/19 06:56:03;;;;;;;72.57;44.15;;;;;;;-0.07;100.00;102530.50;5073325;28;20016;-70
2022/01/19 06:58:29;;;;;;;72.15;44.63;;;;;;;-0.03;100.00;102528.22;5072737;28;20036;-71
2022/01/19 07:00:55;;;;;;;75.63;45.30;;;;;;;-0.03;100.00;102520.44;5071268;28;20464;-71
2022/01/19 07:03:21;;;;;;;75.00;45.58;;;;;;;-0.01;100.00;102523.13;5071900;28;20107;-71
2022/01/19 07:05:46;;;;;;;73.75;44.58;;;;;;;-0.01;100.00;102526.63;5073026;28;20497;-71
2022/01/19 07:08:12;;;;;;;74.97;44.78;;;;;;;0.04;100.00;102520.88;5078638;28;20078;-71
2022/01/19 07:10:38;;;;;;;70.50;43.20;;;;;;;0.06;100.00;102511.47;5072100;28;20111;-70
2022/01/19 07:13:04;;;;;;;69.30;42.58;;;;;;;0.08;100.00;102512.50;5073445;28;20048;-71
2022/01/19 07:15:30;;;;;;;69.45;42.70;;;;;;;0.10;100.00;102517.03;5074461;28;20066;-70
2022/01/19 07:17:56;;;;;;;72.93;44.47;;;;;;;0.14;100.00;102510.34;5075337;28;20443;-70
2022/01/19 07:20:22;;;;;;;68.07;43.38;;;;;;;0.16;100.00;102513.97;5072581;28;20047;-69
2022/01/19 07:22:48;;;;;;;69.25;43.45;;;;;;;0.18;100.00;102507.19;5074299;28;20066;-71
2022/01/19 07:25:14;;;;;;;66.55;40.97;;;;;;;0.23;100.00;102504.91;5071293;28;20024;-70
2022/01/19 07:27:39;;;;;;;65.78;42.67;;;;;;;0.29;100.00;102508.88;5069055;28;20059;-69
2022/01/19 07:30:06;;;;;;;67.97;42.03;;;;;;;0.29;100.00;102510.56;5071596;28;20024;-71
2022/01/19 07:32:34;;;;;;;68.55;43.33;;;;;;;0.29;100.00;102506.28;5078653;28;20028;-70
2022/01/19 07:35:01;;;;;;;69.00;41.83;;;;;;;0.33;100.00;102504.78;5072110;28;20021;-70
2022/01/19 07:37:26;;;;;;;66.35;42.13;;;;;;;0.33;100.00;102496.97;5077863;28;20051;-70
2022/01/19 07:39:52;;;;;;;63.47;41.13;;;;;;;0.38;100.00;102505.13;5075732;28;20024;-70
2022/01/19 07:42:17;;;;;;;60.33;37.97;;;;;;;0.40;100.00;102496.63;5077272;28;20028;-70
2022/01/19 07:44:43;;;;;;;62.75;39.17;;;;;;;0.42;100.00;102494.16;5075209;28;20044;-69
2022/01/19 07:47:08;;;;;;;61.47;38.28;;;;;;;0.48;100.00;102492.91;5073414;28;20116;-69
2022/01/19 07:49:34;;;;;;;60.28;38.38;;;;;;;0.46;100.00;102477.97;5073831;28;20125;-69
2022/01/19 07:51:59;;;;;;;62.80;39.75;;;;;;;0.50;100.00;102486.09;5074536;28;20025;-70
2022/01/19 07:54:24;;;;;;;61.53;38.17;;;;;;;0.55;100.00;102488.13;5070796;28;20025;-71
2022/01/19 07:56:50;;;;;;;60.92;38.50;;;;;;;0.59;100.00;102495.34;5080014;28;20016;-72
2022/01/19 07:59:16;;;;;;;60.20;38.75;;;;;;;0.60;100.00;102491.97;5072491;28;20020;-70
2022/01/19 08:01:42;;;;;;;59.47;38.10;;;;;;;0.57;100.00;102492.66;5072837;28;20024;-71
2022/01/19 08:04:07;;;;;;;59.13;39.17;;;;;;;0.61;100.00;102485.94;5070339;28;20120;-71
2022/01/19 08:06:33;;;;;;;60.63;39.63;;;;;;;0.62;100.00;102486.06;5075521;28;20029;-71
2022/01/19 08:08:58;;;;;;;58.05;36.60;;;;;;;0.65;100.00;102480.16;5073499;28;20107;-71
2022/01/19 08:11:24;;;;;;;59.20;37.15;;;;;;;0.65;100.00;102486.28;5072969;28;20428;-70
2022/01/19 08:13:49;;;;;;;58.65;39.08;;;;;;;0.65;100.00;102485.38;5064648;28;20053;-70
2022/01/19 08:16:16;;;;;;;58.95;38.65;;;;;;;0.67;100.00;102483.78;5073429;28;20040;-70
2022/01/19 08:18:41;;;;;;;59.65;37.55;;;;;;;0.66;100.00;102477.69;5076884;28;20059;-71
2022/01/19 08:21:06;;;;;;;58.95;37.67;;;;;;;0.73;100.00;102473.81;5066917;28;20072;-68
2022/01/19 08:23:32;;;;;;;58.22;37.25;;;;;;;0.72;100.00;102464.19;5075030;28;20732;-68
2022/01/19 08:25:57;;;;;;;61.20;39.20;;;;;;;0.72;100.00;102456.38;5063545;28;20487;-69
2022/01/19 08:28:22;;;;;;;58.60;38.55;;;;;;;0.74;100.00;102466.91;5066808;28;20447;-69
2022/01/19 08:30:48;;;;;;;59.08;38.28;;;;;;;0.76;100.00;102467.91;5068420;28;20103;-68
2022/01/19 08:33:13;;;;;;;59.35;38.20;;;;;;;0.74;100.00;102459.97;5067347;28;20376;-69
2022/01/19 08:35:39;;;;;;;58.47;38.30;;;;;;;0.77;100.00;102461.91;5076191;28;20482;-69
2022/01/19 08:38:04;;;;;;;58.65;38.25;;;;;;;0.77;100.00;102456.69;5070254;28;20378;-70
2022/01/19 08:40:30;;;;;;;58.42;37.95;;;;;;;0.81;100.00;102458.72;5062872;28;20037;-70
2022/01/19 08:42:56;;;;;;;59.40;39.08;;;;;;;0.81;100.00;102458.72;5074006;28;20024;-70
2022/01/19 08:45:22;;;;;;;58.13;38.83;;;;;;;0.84;100.00;102456.31;5072333;28;20032;-70
2022/01/19 08:47:48;;;;;;;59.28;37.95;;;;;;;0.88;100.00;102455.75;5072361;28;20056;-70
2022/01/19 08:50:15;;;;;;;59.65;39.60;;;;;;;0.91;100.00;102448.16;5066767;28;20093;-70
2022/01/19 08:52:41;;;;;;;53.92;35.00;;;;;;;0.93;100.00;102443.94;5072647;28;20021;-70
2022/01/19 08:55:07;;;;;;;55.17;36.45;;;;;;;0.96;100.00;102443.25;5073131;28;20321;-70
2022/01/19 08:57:33;;;;;;;56.35;37.85;;;;;;;0.98;100.00;102439.97;5067837;28;20108;-68
2022/01/19 08:59:58;;;;;;;55.58;36.28;;;;;;;1.01;100.00;102434.97;5075389;28;20039;-70
2022/01/19 09:02:23;;;;;;;54.90;37.03;;;;;;;1.03;100.00;102438.59;5072336;28;20380;-69
2022/01/19 09:04:49;;;;;;;54.38;35.28;;;;;;;1.06;100.00;102435.28;5076492;28;20094;-69
2022/01/19 09:07:15;;;;;;;52.33;33.28;;;;;;;1.08;100.00;102430.16;5075265;28;20112;-69
2022/01/19 09:09:40;;;;;;;54.60;36.42;;;;;;;1.10;100.00;102425.97;5070811;28;20024;-68
2022/01/19 09:12:06;;;;;;;54.80;36.72;;;;;;;1.13;100.00;102420.97;5071458;28;20033;-70
2022/01/19 09:14:31;;;;;;;54.05;35.55;;;;;;;1.15;100.00;102421.97;5069893;28;20039;-70
2022/01/19 09:16:57;;;;;;;54.35;35.08;;;;;;;1.16;100.00;102419.47;5070209;28;20070;-70
2022/01/19 09:19:23;;;;;;;52.47;34.80;;;;;;;1.17;100.00;102413.47;5067210;28;20023;-70
2022/01/19 09:21:49;;;;;;;54.50;35.20;;;;;;;1.22;100.00;102411.16;5069199;28;20021;-70
2022/01/19 09:24:15;;;;;;;52.08;34.67;;;;;;;1.26;100.00;102404.47;5067603;28;20043;-70
2022/01/19 09:26:41;;;;;;;52.13;34.53;;;;;;;1.25;100.00;102416.56;5068277;28;20051;-71
2022/01/19 09:29:06;;;;;;;50.72;34.75;;;;;;;1.29;100.00;102418.59;5074821;28;20501;-70
2022/01/19 09:31:33;;;;;;;51.95;33.80;;;;;;;1.28;100.00;102411.59;5072069;28;20353;-70
2022/01/19 09:34:09;;;;;;;52.72;34.35;;;;;;;1.32;100.00;102403.16;5073425;28;20085;-70
2022/01/19 09:36:44;;;;;;;50.28;32.55;;;;;;;1.33;100.00;102399.75;5070931;28;20370;-70
2022/01/19 09:39:10;;;;;;;51.00;32.97;;;;;;;1.37;100.00;102400.88;5071219;28;20028;-70
2022/01/19 09:41:35;;;;;;;51.42;33.80;;;;;;;1.38;100.00;102390.56;5069589;28;20060;-70
2022/01/19 09:44:00;;;;;;;48.85;32.60;;;;;;;1.42;100.00;102388.16;5067103;28;20091;-70
2022/01/19 09:46:26;;;;;;;51.20;34.38;;;;;;;1.44;100.00;102391.75;5072544;28;20017;-70
2022/01/19 09:48:52;;;;;;;48.58;32.45;;;;;;;1.44;100.00;102379.59;5073054;28;20026;-70
2022/01/19 09:51:17;;;;;;;50.22;32.78;;;;;;;1.45;100.00;102364.91;5073049;28;20034;-70
2022/01/19 09:53:42;;;;;;;48.20;32.20;;;;;;;1.51;100.00;102371.41;5072040;28;20368;-70
2022/01/19 09:56:09;;;;;;;50.08;33.30;;;;;;;1.53;100.00;102363.66;5072887;28;20028;-70
2022/01/19 09:58:34;;;;;;;49.92;33.45;;;;;;;1.54;100.00;102360.28;5072741;28;20032;-70
2022/01/19 10:00:59;;;;;;;47.78;32.13;;;;;;;1.60;100.00;102355.44;5071123;28;20032;-70
2022/01/19 10:03:28;;;;;;;49.45;33.40;;;;;;;1.61;100.00;102362.47;5073167;28;20481;-70
2022/01/19 10:06:07;;;;;;;49.17;33.00;;;;;;;1.66;100.00;102366.31;5072796;28;20056;-70
2022/01/19 10:08:40;;;;;;;49.47;33.47;;;;;;;1.66;100.00;102354.94;5069244;28;20453;-70
2022/01/19 10:16:59;;;;;;;47.78;31.15;;;;;;;1.81;100.00;102344.63;5063329;28;20044;-70
2022/01/19 10:19:32;;;;;;;47.00;31.67;;;;;;;1.78;100.00;102344.41;5060531;28;20025;-70
2022/01/19 10:22:09;;;;;;;46.50;31.67;;;;;;;1.81;100.00;102353.34;5057302;28;20029;-70
2022/01/19 10:24:48;;;;;;;46.00;31.30;;;;;;;1.84;100.00;102342.22;5068915;28;20135;-70
2022/01/19 10:27:27;;;;;;;47.38;31.83;;;;;;;1.88;100.00;102344.22;5067699;28;20020;-71
2022/01/19 10:30:04;;;;;;;47.15;32.00;;;;;;;1.91;100.00;102347.91;5068320;28;20021;-70
2022/01/19 10:32:40;;;;;;;47.20;30.45;;;;;;;1.98;100.00;102344.00;5062498;28;20028;-70
2022/01/19 10:35:18;;;;;;;46.47;31.05;;;;;;;2.04;100.00;102335.63;5071448;28;20025;-70
2022/01/19 10:37:46;;;;;;;45.35;30.38;;;;;;;2.05;100.00;102322.72;5066231;28;20024;-72
2022/01/19 10:40:17;;;;;;;44.50;30.80;;;;;;;2.12;100.00;102320.47;5069207;28;20034;-71
2022/01/19 10:42:43;;;;;;;46.28;31.63;;;;;;;2.18;100.00;102303.47;5069289;28;20032;-69
2022/01/19 10:45:11;;;;;;;42.95;29.23;;;;;;;2.23;100.00;102303.78;5070699;28;20394;-70
2022/01/19 10:47:45;;;;;;;45.05;30.85;;;;;;;2.32;100.00;102303.44;5072751;28;20032;-71
2022/01/19 10:50:21;;;;;;;42.65;28.33;;;;;;;2.30;100.00;102303.34;5072561;28;20024;-71
2022/01/19 10:52:48;;;;;;;42.70;28.98;;;;;;;2.30;100.00;102297.22;5071019;28;20379;-70
2022/01/19 10:55:20;;;;;;;43.40;29.98;;;;;;;2.29;100.00;102316.28;5070372;28;20432;-71
2022/01/19 10:57:47;;;;;;;44.85;30.58;;;;;;;2.30;100.00;102313.78;5071211;28;20024;-72
2022/01/19 11:00:12;;;;;;;44.08;29.85;;;;;;;2.31;100.00;102307.75;5075603;28;20474;-71
2022/01/19 11:02:38;;;;;;;44.33;29.83;;;;;;;2.31;100.00;102293.81;5066699;28;20040;-71
2022/01/19 11:05:05;;;;;;;44.50;29.65;;;;;;;2.34;100.00;102287.03;5070107;28;20093;-72
2022/01/19 11:07:30;;;;;;;45.78;29.77;;;;;;;2.39;100.00;102282.13;5067568;28;20028;-71
2022/01/19 11:10:18;;;;;;;44.35;29.70;;;;;;;2.34;100.00;102281.81;5077671;28;20454;-71
2022/01/19 11:12:49;;;;;;;43.83;29.02;;;;;;;2.35;100.00;102283.63;5067214;28;20060;-71
2022/01/19 11:15:18;;;;;;;44.92;29.48;;;;;;;2.34;100.00;102270.50;5068979;28;20424;-71
2022/01/19 11:17:45;;;;;;;46.47;30.48;;;;;;;2.35;100.00;102267.09;5077951;28;20048;-71
2022/01/19 11:20:15;;;;;;;45.80;29.80;;;;;;;2.37;100.00;102266.34;5071733;28;20422;-72
2022/01/19 11:23:05;;;;;;;44.38;29.02;;;;;;;2.44;100.00;102263.28;5071080;28;20095;-71
2022/01/19 11:25:53;;;;;;;47.03;31.08;;;;;;;2.44;100.00;102258.06;5072278;28;20039;-71
2022/01/19 11:28:37;;;;;;;45.50;31.38;;;;;;;2.36;100.00;102245.38;5074442;28;20032;-70
2022/01/19 11:31:11;;;;;;;47.63;32.35;;;;;;;2.40;100.00;102248.28;5072152;28;20040;-71
2022/01/19 11:33:58;;;;;;;45.72;29.88;;;;;;;2.40;100.00;102234.31;5075381;28;20467;-71
2022/01/19 11:36:42;;;;;;;48.47;33.13;;;;;;;2.39;100.00;102232.53;5069006;28;20028;-71
2022/01/19 11:39:23;;;;;;;48.22;31.58;;;;;;;2.41;100.00;102218.75;5075458;28;20051;-71
2022/01/19 11:41:58;;;;;;;48.25;32.08;;;;;;;2.45;100.00;102209.41;5064602;28;20483;-71
2022/01/19 11:44:33;;;;;;;47.20;32.05;;;;;;;2.45;100.00;102206.78;5070245;28;20031;-71
2022/01/19 11:47:14;;;;;;;49.40;34.33;;;;;;;2.47;100.00;102199.03;5073227;28;20629;-70
2022/01/19 11:50:00;;;;;;;48.83;32.78;;;;;;;2.48;100.00;102198.25;5077358;28;20058;-71
2022/01/19 11:52:33;;;;;;;48.28;32.25;;;;;;;2.49;100.00;102193.13;5077085;28;20032;-71
2022/01/19 11:55:18;;;;;;;48.28;33.03;;;;;;;2.49;100.00;102192.19;5068464;28;20448;-70
2022/01/19 11:57:49;;;;;;;50.00;32.40;;;;;;;2.49;100.00;102187.91;5074768;28;20061;-71
2022/01/19 12:00:21;;;;;;;48.15;32.25;;;;;;;2.49;100.00;102184.34;5072854;28;20059;-70
2022/01/19 12:02:49;;;;;;;47.22;31.70;;;;;;;2.46;100.00;102174.63;5067627;28;20381;-70
2022/01/19 12:05:19;;;;;;;49.03;32.95;;;;;;;2.45;100.00;102170.25;5073380;28;20028;-71
2022/01/19 12:07:55;;;;;;;49.60;34.58;;;;;;;2.48;100.00;102174.75;5076099;28;20153;-71
2022/01/19 12:10:21;;;;;;;53.42;36.03;;;;;;;2.47;100.00;102162.50;5063753;28;20032;-70
2022/01/19 12:13:32;;;;;;;49.88;34.38;;;;;;;2.47;100.00;102166.00;5073071;28;20051;-71
2022/01/19 12:16:07;;;;;;;52.30;36.08;;;;;;;2.54;100.00;102160.31;5073634;28;20479;-70
2022/01/19 12:18:56;;;;;;;52.17;35.70;;;;;;;2.60;100.00;102160.69;5071437;28;20054;-70
2022/01/19 12:21:30;;;;;;;51.08;34.78;;;;;;;2.56;100.00;102160.41;5074539;28;20024;-70
2022/01/19 12:24:16;;;;;;;52.67;35.53;;;;;;;2.68;100.00;102148.09;5070507;28;20489;-70
2022/01/19 12:26:59;;;;;;;55.55;39.17;;;;;;;2.75;100.00;102129.34;5070764;28;20483;-70